sensor_id;sensor_type;location;lat;lon;timestamp;temperature;humidity
6373;DHT22;3219;51.362;7.074;2023-04-30T00:02:08;8.70;99.90
6373;DHT22;3219;51.362;7.074;2023-04-30T00:04:36;8.70;99.90
6373;DHT22;3219;51.362;7.074;2023-04-30T00:07:03;8.70;99.90
6373;DHT22;3219;51.362;7.074;2023-04-30T00:09:29;8.70;99.90
6373;DHT22;3219;51.362;7.074;2023-04-30T00:11:56;8.70;99.90
6373;DHT22;3219;51.362;7.074;2023-04-30T00:14:23;8.60;99.90
6373;DHT22;3219;51.362;7.074;2023-04-30T00:16:50;8.60;99.90
6373;DHT22;3219;51.362;7.074;2023-04-30T00:19:16;8.60;99.90
6373;DHT22;3219;51.362;7.074;2023-04-30T00:21:45;8.60;99.90
6373;DHT22;3219;51.362;7.074;2023-04-30T00:24:12;8.50;99.90
6373;DHT22;3219;51.362;7.074;2023-04-30T00:26:38;8.50;99.90
6373;DHT22;3219;51.362;7.074;2023-04-30T00:29:07;8.50;99.90
6373;DHT22;3219;51.362;7.074;2023-04-30T00:31:33;8.50;99.90
6373;DHT22;3219;51.362;7.074;2023-04-30T00:34:00;8.50;99.90
6373;DHT22;3219;51.362;7.074;2023-04-30T00:36:27;8.50;99.90
6373;DHT22;3219;51.362;7.074;2023-04-30T00:38:55;8.50;99.90
6373;DHT22;3219;51.362;7.074;2023-04-30T00:41:22;8.50;99.90
6373;DHT22;3219;51.362;7.074;2023-04-30T00:43:50;8.40;99.90
6373;DHT22;3219;51.362;7.074;2023-04-30T00:46:16;8.40;99.90
6373;DHT22;3219;51.362;7.074;2023-04-30T00:48:43;8.50;99.90
6373;DHT22;3219;51.362;7.074;2023-04-30T00:51:10;8.50;99.90
6373;DHT22;3219;51.362;7.074;2023-04-30T00:53:38;8.50;99.90
6373;DHT22;3219;51.362;7.074;2023-04-30T00:56:08;8.40;99.90
6373;DHT22;3219;51.362;7.074;2023-04-30T00:58:35;8.40;99.90
6373;DHT22;3219;51.362;7.074;2023-04-30T01:01:02;8.40;99.90
6373;DHT22;3219;51.362;7.074;2023-04-30T01:03:29;8.30;99.90
6373;DHT22;3219;51.362;7.074;2023-04-30T01:05:56;8.30;99.90
6373;DHT22;3219;51.362;7.074;2023-04-30T01:08:23;8.20;99.90
6373;DHT22;3219;51.362;7.074;2023-04-30T01:10:53;8.20;99.90
6373;DHT22;3219;51.362;7.074;2023-04-30T01:13:28;8.30;99.90
6373;DHT22;3219;51.362;7.074;2023-04-30T01:15:59;8.30;99.90
6373;DHT22;3219;51.362;7.074;2023-04-30T01:18:32;8.30;99.90
6373;DHT22;3219;51.362;7.074;2023-04-30T01:21:03;8.30;99.90
6373;DHT22;3219;51.362;7.074;2023-04-30T01:23:45;8.30;99.90
6373;DHT22;3219;51.362;7.074;2023-04-30T01:26:14;8.20;99.90
6373;DHT22;3219;51.362;7.074;2023-04-30T01:28:49;8.20;99.90
6373;DHT22;3219;51.362;7.074;2023-04-30T01:31:17;8.20;99.90
6373;DHT22;3219;51.362;7.074;2023-04-30T01:33:44;8.10;99.90
6373;DHT22;3219;51.362;7.074;2023-04-30T01:36:33;8.10;99.90
6373;DHT22;3219;51.362;7.074;2023-04-30T01:39:23;8.00;99.90
6373;DHT22;3219;51.362;7.074;2023-04-30T01:41:59;8.00;99.90
6373;DHT22;3219;51.362;7.074;2023-04-30T01:44:54;8.00;99.90
6373;DHT22;3219;51.362;7.074;2023-04-30T01:47:31;8.00;99.90
6373;DHT22;3219;51.362;7.074;2023-04-30T01:50:08;7.90;99.90
6373;DHT22;3219;51.362;7.074;2023-04-30T01:52:42;7.90;99.90
6373;DHT22;3219;51.362;7.074;2023-04-30T01:55:13;7.90;99.90
6373;DHT22;3219;51.362;7.074;2023-04-30T01:57:42;7.80;99.90
6373;DHT22;3219;51.362;7.074;2023-04-30T02:00:12;7.80;99.90
6373;DHT22;3219;51.362;7.074;2023-04-30T02:02:42;7.80;99.90
6373;DHT22;3219;51.362;7.074;2023-04-30T02:05:09;7.80;99.90
6373;DHT22;3219;51.362;7.074;2023-04-30T02:07:39;7.80;99.90
6373;DHT22;3219;51.362;7.074;2023-04-30T02:10:07;7.80;99.90
6373;DHT22;3219;51.362;7.074;2023-04-30T02:12:34;7.80;99.90
6373;DHT22;3219;51.362;7.074;2023-04-30T02:15:02;7.80;99.90
6373;DHT22;3219;51.362;7.074;2023-04-30T02:17:30;7.80;99.90
6373;DHT22;3219;51.362;7.074;2023-04-30T02:19:57;7.80;99.90
6373;DHT22;3219;51.362;7.074;2023-04-30T02:22:24;7.80;99.90
6373;DHT22;3219;51.362;7.074;2023-04-30T02:24:51;7.70;99.90
6373;DHT22;3219;51.362;7.074;2023-04-30T02:27:20;7.80;99.90
6373;DHT22;3219;51.362;7.074;2023-04-30T02:29:48;7.70;99.90
6373;DHT22;3219;51.362;7.074;2023-04-30T02:32:15;7.70;99.90
6373;DHT22;3219;51.362;7.074;2023-04-30T02:34:43;7.60;99.90
6373;DHT22;3219;51.362;7.074;2023-04-30T02:37:10;7.60;99.90
6373;DHT22;3219;51.362;7.074;2023-04-30T02:39:37;7.50;99.90
6373;DHT22;3219;51.362;7.074;2023-04-30T02:42:03;7.50;99.90
6373;DHT22;3219;51.362;7.074;2023-04-30T02:44:31;7.50;99.90
6373;DHT22;3219;51.362;7.074;2023-04-30T02:46:58;7.50;99.90
6373;DHT22;3219;51.362;7.074;2023-04-30T02:49:25;7.50;99.90
6373;DHT22;3219;51.362;7.074;2023-04-30T02:51:53;7.50;99.90
6373;DHT22;3219;51.362;7.074;2023-04-30T02:54:20;7.50;99.90
6373;DHT22;3219;51.362;7.074;2023-04-30T02:56:47;7.50;99.90
6373;DHT22;3219;51.362;7.074;2023-04-30T02:59:14;7.50;99.90
6373;DHT22;3219;51.362;7.074;2023-04-30T03:01:40;7.40;99.90
6373;DHT22;3219;51.362;7.074;2023-04-30T03:04:07;7.40;99.90
6373;DHT22;3219;51.362;7.074;2023-04-30T03:06:34;7.40;99.90
6373;DHT22;3219;51.362;7.074;2023-04-30T03:09:02;7.30;99.90
6373;DHT22;3219;51.362;7.074;2023-04-30T03:11:29;7.30;99.90
6373;DHT22;3219;51.362;7.074;2023-04-30T03:13:56;7.30;99.90
6373;DHT22;3219;51.362;7.074;2023-04-30T03:16:22;7.30;99.90
6373;DHT22;3219;51.362;7.074;2023-04-30T03:18:49;7.30;99.90
6373;DHT22;3219;51.362;7.074;2023-04-30T03:21:16;7.30;99.90
6373;DHT22;3219;51.362;7.074;2023-04-30T03:23:43;7.30;99.90
6373;DHT22;3219;51.362;7.074;2023-04-30T03:26:12;7.30;99.90
6373;DHT22;3219;51.362;7.074;2023-04-30T03:28:38;7.30;99.90
6373;DHT22;3219;51.362;7.074;2023-04-30T03:31:05;7.30;99.90
6373;DHT22;3219;51.362;7.074;2023-04-30T03:33:32;7.30;99.90
6373;DHT22;3219;51.362;7.074;2023-04-30T03:35:59;7.30;99.90
6373;DHT22;3219;51.362;7.074;2023-04-30T03:38:25;7.30;99.90
6373;DHT22;3219;51.362;7.074;2023-04-30T03:40:52;7.30;99.90
6373;DHT22;3219;51.362;7.074;2023-04-30T03:43:20;7.20;99.90
6373;DHT22;3219;51.362;7.074;2023-04-30T03:45:47;7.10;99.90
6373;DHT22;3219;51.362;7.074;2023-04-30T03:48:14;7.20;99.90
6373;DHT22;3219;51.362;7.074;2023-04-30T03:50:41;7.20;99.90
6373;DHT22;3219;51.362;7.074;2023-04-30T03:53:07;7.20;99.90
6373;DHT22;3219;51.362;7.074;2023-04-30T03:55:34;7.20;99.90
6373;DHT22;3219;51.362;7.074;2023-04-30T03:58:01;7.20;99.90
6373;DHT22;3219;51.362;7.074;2023-04-30T04:00:29;7.30;99.90
6373;DHT22;3219;51.362;7.074;2023-04-30T04:02:57;7.20;99.90
6373;DHT22;3219;51.362;7.074;2023-04-30T04:05:24;7.30;99.90
6373;DHT22;3219;51.362;7.074;2023-04-30T04:07:51;7.30;99.90
6373;DHT22;3219;51.362;7.074;2023-04-30T04:10:17;7.30;99.90
6373;DHT22;3219;51.362;7.074;2023-04-30T04:12:44;7.30;99.90
6373;DHT22;3219;51.362;7.074;2023-04-30T04:15:11;7.30;99.90
6373;DHT22;3219;51.362;7.074;2023-04-30T04:17:40;7.30;99.90
6373;DHT22;3219;51.362;7.074;2023-04-30T04:20:07;7.30;99.90
6373;DHT22;3219;51.362;7.074;2023-04-30T04:22:34;7.30;99.90
6373;DHT22;3219;51.362;7.074;2023-04-30T04:25:01;7.30;99.90
6373;DHT22;3219;51.362;7.074;2023-04-30T04:27:28;7.30;99.90
6373;DHT22;3219;51.362;7.074;2023-04-30T04:29:54;7.30;99.90
6373;DHT22;3219;51.362;7.074;2023-04-30T04:32:21;7.30;99.90
6373;DHT22;3219;51.362;7.074;2023-04-30T04:34:50;7.30;99.90
6373;DHT22;3219;51.362;7.074;2023-04-30T04:37:18;7.40;99.90
6373;DHT22;3219;51.362;7.074;2023-04-30T04:39:45;7.50;99.90
6373;DHT22;3219;51.362;7.074;2023-04-30T04:42:12;7.50;99.90
6373;DHT22;3219;51.362;7.074;2023-04-30T04:44:39;7.60;99.90
6373;DHT22;3219;51.362;7.074;2023-04-30T04:47:06;7.60;99.90
6373;DHT22;3219;51.362;7.074;2023-04-30T04:49:33;7.80;99.90
6373;DHT22;3219;51.362;7.074;2023-04-30T04:52:01;8.10;99.90
6373;DHT22;3219;51.362;7.074;2023-04-30T04:54:28;8.50;99.90
6373;DHT22;3219;51.362;7.074;2023-04-30T04:56:55;9.10;99.90
6373;DHT22;3219;51.362;7.074;2023-04-30T04:59:22;9.80;99.90
6373;DHT22;3219;51.362;7.074;2023-04-30T05:01:49;10.40;99.90
6373;DHT22;3219;51.362;7.074;2023-04-30T05:04:15;10.90;99.90
6373;DHT22;3219;51.362;7.074;2023-04-30T05:06:42;11.20;99.90
6373;DHT22;3219;51.362;7.074;2023-04-30T05:09:10;11.10;99.90
6373;DHT22;3219;51.362;7.074;2023-04-30T05:11:37;10.80;99.90
6373;DHT22;3219;51.362;7.074;2023-04-30T05:14:05;10.60;99.90
6373;DHT22;3219;51.362;7.074;2023-04-30T05:16:32;10.50;99.90
6373;DHT22;3219;51.362;7.074;2023-04-30T05:18:59;11.00;99.90
6373;DHT22;3219;51.362;7.074;2023-04-30T05:21:26;11.40;99.90
6373;DHT22;3219;51.362;7.074;2023-04-30T05:23:54;11.40;99.90
6373;DHT22;3219;51.362;7.074;2023-04-30T05:26:22;11.30;99.90
6373;DHT22;3219;51.362;7.074;2023-04-30T05:28:49;11.30;99.90
6373;DHT22;3219;51.362;7.074;2023-04-30T05:31:16;11.20;99.90
6373;DHT22;3219;51.362;7.074;2023-04-30T05:33:43;11.10;99.90
6373;DHT22;3219;51.362;7.074;2023-04-30T05:36:10;11.10;99.90
6373;DHT22;3219;51.362;7.074;2023-04-30T05:38:37;11.10;99.90
6373;DHT22;3219;51.362;7.074;2023-04-30T05:41:04;11.30;99.90
6373;DHT22;3219;51.362;7.074;2023-04-30T05:43:32;11.40;99.90
6373;DHT22;3219;51.362;7.074;2023-04-30T05:45:59;11.60;99.90
6373;DHT22;3219;51.362;7.074;2023-04-30T05:48:26;11.90;99.90
6373;DHT22;3219;51.362;7.074;2023-04-30T05:50:53;12.00;99.90
6373;DHT22;3219;51.362;7.074;2023-04-30T05:53:20;12.40;99.90
6373;DHT22;3219;51.362;7.074;2023-04-30T05:55:47;12.60;99.90
6373;DHT22;3219;51.362;7.074;2023-04-30T05:58:14;13.10;99.90
6373;DHT22;3219;51.362;7.074;2023-04-30T06:00:42;13.70;99.90
6373;DHT22;3219;51.362;7.074;2023-04-30T06:03:09;14.30;99.90
6373;DHT22;3219;51.362;7.074;2023-04-30T06:05:36;15.10;99.90
6373;DHT22;3219;51.362;7.074;2023-04-30T06:08:05;15.30;99.90
6373;DHT22;3219;51.362;7.074;2023-04-30T06:10:32;16.60;99.90
6373;DHT22;3219;51.362;7.074;2023-04-30T06:12:59;17.30;97.80
6373;DHT22;3219;51.362;7.074;2023-04-30T06:15:26;17.90;96.80
6373;DHT22;3219;51.362;7.074;2023-04-30T06:17:54;18.40;95.90
6373;DHT22;3219;51.362;7.074;2023-04-30T06:20:21;19.10;96.00
6373;DHT22;3219;51.362;7.074;2023-04-30T06:22:47;19.60;94.40
6373;DHT22;3219;51.362;7.074;2023-04-30T06:25:14;20.20;93.90
6373;DHT22;3219;51.362;7.074;2023-04-30T06:27:41;20.50;91.70
6373;DHT22;3219;51.362;7.074;2023-04-30T06:30:08;20.80;91.30
6373;DHT22;3219;51.362;7.074;2023-04-30T06:32:35;21.30;91.60
6373;DHT22;3219;51.362;7.074;2023-04-30T06:35:04;21.30;88.50
6373;DHT22;3219;51.362;7.074;2023-04-30T06:37:31;21.50;89.80
6373;DHT22;3219;51.362;7.074;2023-04-30T06:40:02;21.40;86.60
6373;DHT22;3219;51.362;7.074;2023-04-30T06:42:29;21.50;87.70
6373;DHT22;3219;51.362;7.074;2023-04-30T06:44:59;21.90;88.20
6373;DHT22;3219;51.362;7.074;2023-04-30T06:47:25;22.50;87.40
6373;DHT22;3219;51.362;7.074;2023-04-30T06:49:52;23.40;85.50
6373;DHT22;3219;51.362;7.074;2023-04-30T06:52:20;23.90;83.40
6373;DHT22;3219;51.362;7.074;2023-04-30T06:54:47;24.10;81.80
6373;DHT22;3219;51.362;7.074;2023-04-30T06:57:14;24.30;80.80
6373;DHT22;3219;51.362;7.074;2023-04-30T06:59:41;23.70;79.20
6373;DHT22;3219;51.362;7.074;2023-04-30T07:02:08;24.10;80.10
6373;DHT22;3219;51.362;7.074;2023-04-30T07:04:36;24.60;79.50
6373;DHT22;3219;51.362;7.074;2023-04-30T07:07:03;24.50;76.40
6373;DHT22;3219;51.362;7.074;2023-04-30T07:09:31;23.70;76.70
6373;DHT22;3219;51.362;7.074;2023-04-30T07:11:58;23.50;76.90
6373;DHT22;3219;51.362;7.074;2023-04-30T07:14:25;23.60;78.20
6373;DHT22;3219;51.362;7.074;2023-04-30T07:16:52;24.10;79.10
6373;DHT22;3219;51.362;7.074;2023-04-30T07:19:19;24.50;78.00
6373;DHT22;3219;51.362;7.074;2023-04-30T07:21:46;25.20;75.90
6373;DHT22;3219;51.362;7.074;2023-04-30T07:24:13;25.40;75.50
6373;DHT22;3219;51.362;7.074;2023-04-30T07:26:41;25.60;76.60
6373;DHT22;3219;51.362;7.074;2023-04-30T07:29:08;25.80;74.50
6373;DHT22;3219;51.362;7.074;2023-04-30T07:31:34;26.10;74.40
6373;DHT22;3219;51.362;7.074;2023-04-30T07:34:01;26.60;71.90
6373;DHT22;3219;51.362;7.074;2023-04-30T07:36:28;26.80;71.70
6373;DHT22;3219;51.362;7.074;2023-04-30T07:38:55;26.90;71.10
6373;DHT22;3219;51.362;7.074;2023-04-30T07:41:23;26.90;70.10
6373;DHT22;3219;51.362;7.074;2023-04-30T07:43:51;26.80;70.00
6373;DHT22;3219;51.362;7.074;2023-04-30T07:46:18;26.80;70.10
6373;DHT22;3219;51.362;7.074;2023-04-30T07:48:45;26.70;69.00
6373;DHT22;3219;51.362;7.074;2023-04-30T07:51:12;26.00;69.80
6373;DHT22;3219;51.362;7.074;2023-04-30T07:53:39;24.80;73.40
6373;DHT22;3219;51.362;7.074;2023-04-30T07:56:06;24.00;76.10
6373;DHT22;3219;51.362;7.074;2023-04-30T07:58:32;23.60;74.20
6373;DHT22;3219;51.362;7.074;2023-04-30T08:01:01;23.00;75.40
6373;DHT22;3219;51.362;7.074;2023-04-30T08:03:28;22.60;76.10
6373;DHT22;3219;51.362;7.074;2023-04-30T08:05:56;22.20;77.60
6373;DHT22;3219;51.362;7.074;2023-04-30T08:08:23;21.50;76.60
6373;DHT22;3219;51.362;7.074;2023-04-30T08:10:49;20.50;79.30
6373;DHT22;3219;51.362;7.074;2023-04-30T08:13:16;19.70;82.50
6373;DHT22;3219;51.362;7.074;2023-04-30T08:15:45;18.90;84.00
6373;DHT22;3219;51.362;7.074;2023-04-30T08:18:13;18.60;87.40
6373;DHT22;3219;51.362;7.074;2023-04-30T08:20:40;18.30;86.20
6373;DHT22;3219;51.362;7.074;2023-04-30T08:23:07;18.00;89.50
6373;DHT22;3219;51.362;7.074;2023-04-30T08:25:34;17.50;89.50
6373;DHT22;3219;51.362;7.074;2023-04-30T08:28:01;17.20;91.00
6373;DHT22;3219;51.362;7.074;2023-04-30T08:30:28;16.90;92.00
6373;DHT22;3219;51.362;7.074;2023-04-30T08:32:54;16.50;94.00
6373;DHT22;3219;51.362;7.074;2023-04-30T08:35:23;16.20;92.80
6373;DHT22;3219;51.362;7.074;2023-04-30T08:37:50;16.30;93.80
6373;DHT22;3219;51.362;7.074;2023-04-30T08:40:18;16.40;94.10
6373;DHT22;3219;51.362;7.074;2023-04-30T08:42:49;16.50;94.30
6373;DHT22;3219;51.362;7.074;2023-04-30T08:45:19;16.20;94.10
6373;DHT22;3219;51.362;7.074;2023-04-30T08:47:47;16.00;95.50
6373;DHT22;3219;51.362;7.074;2023-04-30T08:50:14;15.90;96.30
6373;DHT22;3219;51.362;7.074;2023-04-30T08:52:42;15.80;96.00
6373;DHT22;3219;51.362;7.074;2023-04-30T08:55:09;15.80;96.20
6373;DHT22;3219;51.362;7.074;2023-04-30T08:57:36;15.70;94.30
6373;DHT22;3219;51.362;7.074;2023-04-30T09:00:04;15.60;96.00
6373;DHT22;3219;51.362;7.074;2023-04-30T09:02:32;15.70;95.00
6373;DHT22;3219;51.362;7.074;2023-04-30T09:04:59;15.60;93.80
6373;DHT22;3219;51.362;7.074;2023-04-30T09:07:26;15.50;94.40
6373;DHT22;3219;51.362;7.074;2023-04-30T09:09:55;15.40;94.20
6373;DHT22;3219;51.362;7.074;2023-04-30T09:12:23;15.10;95.00
6373;DHT22;3219;51.362;7.074;2023-04-30T09:14:57;15.00;94.90
6373;DHT22;3219;51.362;7.074;2023-04-30T09:17:25;14.90;95.70
6373;DHT22;3219;51.362;7.074;2023-04-30T09:19:52;14.80;96.00
6373;DHT22;3219;51.362;7.074;2023-04-30T09:22:20;14.80;96.10
6373;DHT22;3219;51.362;7.074;2023-04-30T09:24:48;15.00;95.50
6373;DHT22;3219;51.362;7.074;2023-04-30T09:27:17;15.20;95.90
6373;DHT22;3219;51.362;7.074;2023-04-30T09:29:44;15.50;95.00
6373;DHT22;3219;51.362;7.074;2023-04-30T09:32:11;15.50;93.70
6373;DHT22;3219;51.362;7.074;2023-04-30T09:34:39;15.50;94.80
6373;DHT22;3219;51.362;7.074;2023-04-30T09:37:08;15.70;95.10
6373;DHT22;3219;51.362;7.074;2023-04-30T09:39:45;15.90;94.10
6373;DHT22;3219;51.362;7.074;2023-04-30T09:42:12;16.00;94.90
6373;DHT22;3219;51.362;7.074;2023-04-30T09:44:41;16.00;95.10
6373;DHT22;3219;51.362;7.074;2023-04-30T09:47:13;16.00;93.70
6373;DHT22;3219;51.362;7.074;2023-04-30T09:49:41;16.10;94.50
6373;DHT22;3219;51.362;7.074;2023-04-30T09:52:08;16.20;94.50
6373;DHT22;3219;51.362;7.074;2023-04-30T09:54:36;16.20;93.80
6373;DHT22;3219;51.362;7.074;2023-04-30T09:57:03;16.30;93.70
6373;DHT22;3219;51.362;7.074;2023-04-30T09:59:34;16.30;93.20
6373;DHT22;3219;51.362;7.074;2023-04-30T10:02:05;16.30;94.30
6373;DHT22;3219;51.362;7.074;2023-04-30T10:04:33;16.30;95.00
6373;DHT22;3219;51.362;7.074;2023-04-30T10:07:03;16.30;94.80
6373;DHT22;3219;51.362;7.074;2023-04-30T10:09:35;16.20;94.40
6373;DHT22;3219;51.362;7.074;2023-04-30T10:12:07;16.20;94.60
6373;DHT22;3219;51.362;7.074;2023-04-30T10:14:38;16.10;94.00
6373;DHT22;3219;51.362;7.074;2023-04-30T10:17:12;16.10;94.80
6373;DHT22;3219;51.362;7.074;2023-04-30T10:19:39;16.20;93.60
6373;DHT22;3219;51.362;7.074;2023-04-30T10:22:08;16.10;93.20
6373;DHT22;3219;51.362;7.074;2023-04-30T10:24:37;16.00;93.70
6373;DHT22;3219;51.362;7.074;2023-04-30T10:27:03;16.10;95.70
6373;DHT22;3219;51.362;7.074;2023-04-30T10:29:30;16.30;92.80
6373;DHT22;3219;51.362;7.074;2023-04-30T10:31:58;16.30;93.40
6373;DHT22;3219;51.362;7.074;2023-04-30T10:34:37;16.10;93.50
6373;DHT22;3219;51.362;7.074;2023-04-30T10:37:12;16.00;95.10
6373;DHT22;3219;51.362;7.074;2023-04-30T10:39:41;16.10;94.90
6373;DHT22;3219;51.362;7.074;2023-04-30T10:42:09;16.30;95.10
6373;DHT22;3219;51.362;7.074;2023-04-30T10:44:36;16.40;95.80
6373;DHT22;3219;51.362;7.074;2023-04-30T10:47:04;16.50;96.80
6373;DHT22;3219;51.362;7.074;2023-04-30T10:49:33;16.60;95.20
6373;DHT22;3219;51.362;7.074;2023-04-30T10:52:01;16.70;94.90
6373;DHT22;3219;51.362;7.074;2023-04-30T10:54:30;17.00;95.20
6373;DHT22;3219;51.362;7.074;2023-04-30T10:57:09;16.90;95.80
6373;DHT22;3219;51.362;7.074;2023-04-30T10:59:37;17.00;94.20
6373;DHT22;3219;51.362;7.074;2023-04-30T11:02:04;16.90;92.60
6373;DHT22;3219;51.362;7.074;2023-04-30T11:04:31;16.50;94.00
6373;DHT22;3219;51.362;7.074;2023-04-30T11:07:08;16.30;95.30
6373;DHT22;3219;51.362;7.074;2023-04-30T11:09:37;16.20;96.50
6373;DHT22;3219;51.362;7.074;2023-04-30T11:12:10;16.20;96.30
6373;DHT22;3219;51.362;7.074;2023-04-30T11:14:40;16.10;94.10
6373;DHT22;3219;51.362;7.074;2023-04-30T11:17:09;15.90;93.40
6373;DHT22;3219;51.362;7.074;2023-04-30T11:19:42;15.90;93.90
6373;DHT22;3219;51.362;7.074;2023-04-30T11:22:17;16.00;94.50
6373;DHT22;3219;51.362;7.074;2023-04-30T11:25:01;16.10;94.00
6373;DHT22;3219;51.362;7.074;2023-04-30T11:27:30;16.00;93.00
6373;DHT22;3219;51.362;7.074;2023-04-30T11:29:57;15.80;93.90
6373;DHT22;3219;51.362;7.074;2023-04-30T11:32:31;15.80;93.40
6373;DHT22;3219;51.362;7.074;2023-04-30T11:34:59;15.80;93.50
6373;DHT22;3219;51.362;7.074;2023-04-30T11:37:31;15.70;93.60
6373;DHT22;3219;51.362;7.074;2023-04-30T11:40:00;15.60;93.40
6373;DHT22;3219;51.362;7.074;2023-04-30T11:42:28;15.60;93.40
6373;DHT22;3219;51.362;7.074;2023-04-30T11:45:03;15.70;94.00
6373;DHT22;3219;51.362;7.074;2023-04-30T11:47:38;15.80;94.20
6373;DHT22;3219;51.362;7.074;2023-04-30T11:50:06;15.80;94.70
6373;DHT22;3219;51.362;7.074;2023-04-30T11:52:35;15.80;93.60
6373;DHT22;3219;51.362;7.074;2023-04-30T11:55:05;15.70;92.80
6373;DHT22;3219;51.362;7.074;2023-04-30T11:57:40;15.40;94.40
6373;DHT22;3219;51.362;7.074;2023-04-30T12:00:10;15.20;94.60
6373;DHT22;3219;51.362;7.074;2023-04-30T12:02:37;15.10;95.00
6373;DHT22;3219;51.362;7.074;2023-04-30T12:05:10;15.10;95.30
6373;DHT22;3219;51.362;7.074;2023-04-30T12:07:38;15.10;95.30
6373;DHT22;3219;51.362;7.074;2023-04-30T12:10:06;15.30;96.50
6373;DHT22;3219;51.362;7.074;2023-04-30T12:12:36;15.40;95.30
6373;DHT22;3219;51.362;7.074;2023-04-30T12:15:10;16.20;95.50
6373;DHT22;3219;51.362;7.074;2023-04-30T12:17:37;15.80;94.40
6373;DHT22;3219;51.362;7.074;2023-04-30T12:20:05;16.00;96.40
6373;DHT22;3219;51.362;7.074;2023-04-30T12:22:32;16.00;94.50
6373;DHT22;3219;51.362;7.074;2023-04-30T12:25:05;16.00;95.40
6373;DHT22;3219;51.362;7.074;2023-04-30T12:27:32;15.80;96.20
6373;DHT22;3219;51.362;7.074;2023-04-30T12:30:02;15.50;95.70
6373;DHT22;3219;51.362;7.074;2023-04-30T12:32:36;15.40;95.50
6373;DHT22;3219;51.362;7.074;2023-04-30T12:35:04;15.50;96.60
6373;DHT22;3219;51.362;7.074;2023-04-30T12:37:31;15.60;97.80
6373;DHT22;3219;51.362;7.074;2023-04-30T12:39:59;15.70;96.60
6373;DHT22;3219;51.362;7.074;2023-04-30T12:42:31;15.70;93.10
6373;DHT22;3219;51.362;7.074;2023-04-30T12:44:58;15.70;93.30
6373;DHT22;3219;51.362;7.074;2023-04-30T12:47:25;15.90;94.50
6373;DHT22;3219;51.362;7.074;2023-04-30T12:49:52;15.80;93.20
6373;DHT22;3219;51.362;7.074;2023-04-30T12:52:22;15.70;92.60
6373;DHT22;3219;51.362;7.074;2023-04-30T12:54:49;15.70;94.00
6373;DHT22;3219;51.362;7.074;2023-04-30T12:57:18;15.20;92.60
6373;DHT22;3219;51.362;7.074;2023-04-30T12:59:56;15.70;92.60
6373;DHT22;3219;51.362;7.074;2023-04-30T13:02:24;15.80;93.00
6373;DHT22;3219;51.362;7.074;2023-04-30T13:04:52;15.90;93.30
6373;DHT22;3219;51.362;7.074;2023-04-30T13:07:19;15.90;94.50
6373;DHT22;3219;51.362;7.074;2023-04-30T13:09:46;15.90;93.20
6373;DHT22;3219;51.362;7.074;2023-04-30T13:12:13;16.00;96.10
6373;DHT22;3219;51.362;7.074;2023-04-30T13:14:41;16.10;96.10
6373;DHT22;3219;51.362;7.074;2023-04-30T13:17:08;16.20;92.70
6373;DHT22;3219;51.362;7.074;2023-04-30T13:19:36;16.10;93.60
6373;DHT22;3219;51.362;7.074;2023-04-30T13:22:03;16.20;93.70
6373;DHT22;3219;51.362;7.074;2023-04-30T13:24:30;16.30;96.00
6373;DHT22;3219;51.362;7.074;2023-04-30T13:26:57;16.30;95.10
6373;DHT22;3219;51.362;7.074;2023-04-30T13:29:24;16.30;93.10
6373;DHT22;3219;51.362;7.074;2023-04-30T13:31:52;16.30;93.50
6373;DHT22;3219;51.362;7.074;2023-04-30T13:34:19;16.40;94.10
6373;DHT22;3219;51.362;7.074;2023-04-30T13:36:46;16.30;93.20
6373;DHT22;3219;51.362;7.074;2023-04-30T13:39:13;16.20;92.70
6373;DHT22;3219;51.362;7.074;2023-04-30T13:41:39;16.10;92.70
6373;DHT22;3219;51.362;7.074;2023-04-30T13:44:06;16.10;93.70
6373;DHT22;3219;51.362;7.074;2023-04-30T13:46:33;16.10;93.50
6373;DHT22;3219;51.362;7.074;2023-04-30T13:49:01;16.00;91.80
6373;DHT22;3219;51.362;7.074;2023-04-30T13:51:28;16.00;93.20
6373;DHT22;3219;51.362;7.074;2023-04-30T13:53:55;16.00;92.60
6373;DHT22;3219;51.362;7.074;2023-04-30T13:56:23;16.10;92.00
6373;DHT22;3219;51.362;7.074;2023-04-30T13:58:49;16.20;93.10
6373;DHT22;3219;51.362;7.074;2023-04-30T14:01:16;16.20;91.60
6373;DHT22;3219;51.362;7.074;2023-04-30T14:03:43;16.20;92.90
6373;DHT22;3219;51.362;7.074;2023-04-30T14:06:12;16.10;93.20
6373;DHT22;3219;51.362;7.074;2023-04-30T14:08:39;16.20;92.40
6373;DHT22;3219;51.362;7.074;2023-04-30T14:11:06;16.20;92.90
6373;DHT22;3219;51.362;7.074;2023-04-30T14:13:33;16.20;91.90
6373;DHT22;3219;51.362;7.074;2023-04-30T14:15:59;16.10;92.50
6373;DHT22;3219;51.362;7.074;2023-04-30T14:18:26;16.00;91.20
6373;DHT22;3219;51.362;7.074;2023-04-30T14:20:53;16.00;92.70
6373;DHT22;3219;51.362;7.074;2023-04-30T14:23:21;16.00;92.90
6373;DHT22;3219;51.362;7.074;2023-04-30T14:25:48;16.10;93.50
6373;DHT22;3219;51.362;7.074;2023-04-30T14:28:14;16.10;92.00
6373;DHT22;3219;51.362;7.074;2023-04-30T14:30:41;16.10;92.20
6373;DHT22;3219;51.362;7.074;2023-04-30T14:33:08;16.10;93.00
6373;DHT22;3219;51.362;7.074;2023-04-30T14:35:36;16.20;93.70
6373;DHT22;3219;51.362;7.074;2023-04-30T14:38:04;16.20;93.10
6373;DHT22;3219;51.362;7.074;2023-04-30T14:40:32;16.30;93.20
6373;DHT22;3219;51.362;7.074;2023-04-30T14:42:58;16.30;91.40
6373;DHT22;3219;51.362;7.074;2023-04-30T14:45:25;16.20;92.70
6373;DHT22;3219;51.362;7.074;2023-04-30T14:47:53;16.20;92.30
6373;DHT22;3219;51.362;7.074;2023-04-30T14:50:20;16.10;91.80
6373;DHT22;3219;51.362;7.074;2023-04-30T14:52:48;16.10;92.00
6373;DHT22;3219;51.362;7.074;2023-04-30T14:55:15;16.10;92.10
6373;DHT22;3219;51.362;7.074;2023-04-30T14:57:43;16.10;93.60
6373;DHT22;3219;51.362;7.074;2023-04-30T15:00:11;16.10;92.40
6373;DHT22;3219;51.362;7.074;2023-04-30T15:02:37;16.10;91.50
6373;DHT22;3219;51.362;7.074;2023-04-30T15:05:06;16.20;90.90
6373;DHT22;3219;51.362;7.074;2023-04-30T15:07:33;16.20;92.00
6373;DHT22;3219;51.362;7.074;2023-04-30T15:10:01;16.20;91.30
6373;DHT22;3219;51.362;7.074;2023-04-30T15:12:27;16.20;91.30
6373;DHT22;3219;51.362;7.074;2023-04-30T15:14:55;16.20;91.30
6373;DHT22;3219;51.362;7.074;2023-04-30T15:17:22;16.20;91.50
6373;DHT22;3219;51.362;7.074;2023-04-30T15:19:49;16.10;90.60
6373;DHT22;3219;51.362;7.074;2023-04-30T15:22:17;16.20;91.90
6373;DHT22;3219;51.362;7.074;2023-04-30T15:24:44;16.10;91.50
6373;DHT22;3219;51.362;7.074;2023-04-30T15:27:11;16.10;91.00
6373;DHT22;3219;51.362;7.074;2023-04-30T15:29:38;16.10;91.90
6373;DHT22;3219;51.362;7.074;2023-04-30T15:32:07;16.00;91.40
6373;DHT22;3219;51.362;7.074;2023-04-30T15:34:33;16.10;91.70
6373;DHT22;3219;51.362;7.074;2023-04-30T15:37:00;16.00;91.90
6373;DHT22;3219;51.362;7.074;2023-04-30T15:39:27;16.00;90.50
6373;DHT22;3219;51.362;7.074;2023-04-30T15:41:54;15.90;90.70
6373;DHT22;3219;51.362;7.074;2023-04-30T15:44:21;15.90;90.40
6373;DHT22;3219;51.362;7.074;2023-04-30T15:46:47;15.90;90.80
6373;DHT22;3219;51.362;7.074;2023-04-30T15:49:17;15.90;91.60
6373;DHT22;3219;51.362;7.074;2023-04-30T15:51:44;15.90;91.20
6373;DHT22;3219;51.362;7.074;2023-04-30T15:54:10;15.90;92.30
6373;DHT22;3219;51.362;7.074;2023-04-30T15:56:38;16.00;91.20
6373;DHT22;3219;51.362;7.074;2023-04-30T15:59:05;16.00;92.20
6373;DHT22;3219;51.362;7.074;2023-04-30T16:01:32;15.90;92.80
6373;DHT22;3219;51.362;7.074;2023-04-30T16:03:59;16.00;92.80
6373;DHT22;3219;51.362;7.074;2023-04-30T16:06:27;15.90;93.40
6373;DHT22;3219;51.362;7.074;2023-04-30T16:08:56;15.90;92.70
6373;DHT22;3219;51.362;7.074;2023-04-30T16:11:23;15.80;91.40
6373;DHT22;3219;51.362;7.074;2023-04-30T16:13:50;15.80;91.70